Time;durP1;ratioP1;P1;durP2;ratioP2;P2;SDS_P1;SDS_P2;PMS_P1;PMS_P2;Temp;Humidity;BMP_temperature;BMP_pressure;BME280_temperature;BME280_humidity;BME280_pressure;Samples;Min_cycle;Max_cycle;Signal;HPM_P1;HPM_P2
2024/04/03 00:01:14;;;;;;;0.50;0.20;;;;;;;29.82;32.28;97931.88;7391999;19;20007;-79
2024/04/03 00:03:42;;;;;;;0.40;0.20;;;;;;;28.61;33.77;97928.06;7388495;19;20025;-79
2024/04/03 00:06:08;;;;;;;0.15;0.15;;;;;;;28.17;33.71;97921.72;7390551;19;20060;-79
2024/04/03 00:08:34;;;;;;;0.10;0.10;;;;;;;27.81;34.08;97925.69;7390085;19;20018;-79
2024/04/03 00:11:00;;;;;;;0.38;0.38;;;;;;;28.24;33.61;97911.31;7388043;19;20018;-79
2024/04/03 00:13:28;;;;;;;0.50;0.50;;;;;;;28.05;34.00;97912.56;7391095;19;20018;-79
2024/04/03 00:15:58;;;;;;;0.47;0.10;;;;;;;27.75;34.75;97913.94;7387848;19;20484;-79
2024/04/03 00:18:24;;;;;;;0.30;0.10;;;;;;;27.86;34.08;97918.78;7389868;19;20026;-79
2024/04/03 00:21:03;;;;;;;0.10;0.10;;;;;;;28.07;34.10;97909.06;7392833;19;20497;-79
2024/04/03 00:23:31;;;;;;;0.10;0.10;;;;;;;27.89;34.59;97903.19;7387831;19;20018;-79
2024/04/03 00:25:59;;;;;;;0.73;0.20;;;;;;;28.61;34.12;97902.28;7390912;19;20078;-79
2024/04/03 00:28:26;;;;;;;0.10;0.10;;;;;;;28.12;34.49;97905.75;7390302;19;20024;-79
2024/04/03 00:30:52;;;;;;;0.57;0.20;;;;;;;28.23;34.13;97910.56;7391057;19;20044;-79
2024/04/03 00:33:20;;;;;;;0.13;0.13;;;;;;;28.36;34.51;97901.13;7388953;19;20019;-79
2024/04/03 00:35:55;;;;;;;0.20;0.20;;;;;;;28.83;33.62;97891.78;7388147;19;20136;-79
2024/04/03 00:38:21;;;;;;;0.13;0.13;;;;;;;29.16;33.15;97892.56;7391539;19;20043;-78
2024/04/03 00:40:54;;;;;;;0.10;0.10;;;;;;;28.54;34.05;97886.91;7389292;19;20038;-80
2024/04/03 00:43:20;;;;;;;0.30;0.20;;;;;;;28.30;34.10;97886.56;7389315;19;20014;-79
2024/04/03 00:45:47;;;;;;;0.10;0.10;;;;;;;28.10;34.31;97885.63;7397490;19;20426;-80
2024/04/03 00:48:13;;;;;;;0.20;0.20;;;;;;;28.23;34.50;97876.19;7397038;19;20014;-79
2024/04/03 00:50:39;;;;;;;0.20;0.20;;;;;;;27.94;34.84;97879.09;7398474;19;20046;-79
2024/04/03 00:53:05;;;;;;;0.30;0.30;;;;;;;27.83;35.22;97868.53;7394252;19;20018;-79
2024/04/03 00:55:32;;;;;;;0.40;0.28;;;;;;;28.03;34.80;97871.66;7397098;19;20350;-79
2024/04/03 00:57:58;;;;;;;0.70;0.57;;;;;;;28.39;34.76;97865.47;7395679;19;20047;-79
2024/04/03 01:00:25;;;;;;;0.25;0.25;;;;;;;28.50;34.73;97858.81;7399478;19;20038;-79
2024/04/03 01:02:51;;;;;;;0.77;0.32;;;;;;;28.36;34.75;97855.31;7393040;19;20029;-79
2024/04/03 01:05:17;;;;;;;2.30;1.00;;;;;;;28.23;35.12;97853.28;7396452;19;20022;-79
2024/04/03 01:07:43;;;;;;;0.73;0.30;;;;;;;28.83;34.38;97854.50;7396205;19;20011;-79
2024/04/03 01:10:09;;;;;;;0.22;0.22;;;;;;;29.69;33.00;97843.78;7400902;19;20053;-79
2024/04/03 01:12:35;;;;;;;0.22;0.22;;;;;;;29.91;32.92;97836.09;7395029;19;20029;-79
2024/04/03 01:15:01;;;;;;;0.70;0.13;;;;;;;29.38;33.89;97828.91;7393822;19;20398;-79
2024/04/03 01:17:27;;;;;;;0.10;0.10;;;;;;;29.58;33.74;97830.47;7394189;19;20041;-79
2024/04/03 01:19:54;;;;;;;0.10;0.10;;;;;;;29.35;33.85;97827.34;7395208;19;20018;-79
2024/04/03 01:22:20;;;;;;;1.10;0.20;;;;;;;29.00;34.00;97825.91;7392083;19;20090;-79
2024/04/03 01:24:46;;;;;;;0.20;0.15;;;;;;;29.33;34.06;97824.38;7398273;19;20018;-79
2024/04/03 01:27:12;;;;;;;0.55;0.25;;;;;;;30.17;32.89;97812.66;7395207;19;20051;-79
2024/04/03 01:29:38;;;;;;;0.25;0.25;;;;;;;29.81;33.70;97806.25;7394770;19;20014;-79
2024/04/03 01:32:06;;;;;;;0.32;0.32;;;;;;;29.73;33.68;97806.66;7392484;19;20011;-79
2024/04/03 01:34:32;;;;;;;0.38;0.35;;;;;;;29.50;33.84;97807.19;7395483;19;20010;-79
2024/04/03 01:36:58;;;;;;;0.73;0.20;;;;;;;29.21;34.23;97804.56;7391630;19;20018;-79
2024/04/03 01:39:25;;;;;;;1.63;0.43;;;;;;;29.03;34.38;97798.81;7393826;19;20010;-79
2024/04/03 01:41:51;;;;;;;0.82;0.45;;;;;;;29.62;34.08;97798.31;7392065;19;20018;-79
2024/04/03 01:44:17;;;;;;;0.40;0.40;;;;;;;30.36;33.20;97792.56;7393544;19;20461;-79
2024/04/03 01:46:43;;;;;;;0.10;0.10;;;;;;;29.73;33.98;97792.31;7394977;19;20018;-79
2024/04/03 01:49:09;;;;;;;0.22;0.22;;;;;;;29.58;33.76;97793.16;7393744;19;20074;-78
2024/04/03 01:51:35;;;;;;;0.30;0.20;;;;;;;29.30;34.18;97786.31;7394565;19;20774;-79
2024/04/03 01:54:01;;;;;;;0.95;0.65;;;;;;;29.44;34.10;97780.38;7392536;19;20022;-79
2024/04/03 01:56:27;;;;;;;1.35;1.25;;;;;;;30.10;33.44;97776.50;7394500;19;20022;-79
2024/04/03 01:58:53;;;;;;;2.53;0.88;;;;;;;30.77;32.75;97771.75;7393613;19;20579;-79
2024/04/03 02:01:19;;;;;;;1.92;0.75;;;;;;;30.22;33.71;97768.31;7393026;19;20022;-79
2024/04/03 02:03:45;;;;;;;2.10;0.50;;;;;;;29.88;33.78;97779.28;7391913;19;20022;-79
2024/04/03 02:06:13;;;;;;;2.05;0.30;;;;;;;29.42;34.65;97768.81;7396936;19;20022;-79
2024/04/03 02:08:39;;;;;;;0.22;0.20;;;;;;;29.07;35.11;97769.56;7394571;19;20481;-79
2024/04/03 02:11:05;;;;;;;2.00;0.57;;;;;;;28.89;35.06;97760.94;7392109;19;20027;-79
2024/04/03 02:13:31;;;;;;;0.30;0.30;;;;;;;29.08;35.06;97768.16;7392400;19;20082;-79
2024/04/03 02:15:57;;;;;;;1.13;0.35;;;;;;;28.85;35.40;97766.50;7393477;19;20119;-79
2024/04/03 02:18:23;;;;;;;1.30;0.30;;;;;;;28.89;35.76;97755.22;7394006;19;20025;-79
2024/04/03 02:20:51;;;;;;;1.58;0.47;;;;;;;28.71;35.99;97762.31;7397639;19;20027;-79
2024/04/03 02:23:17;;;;;;;1.75;0.50;;;;;;;28.89;35.16;97760.94;7392315;19;20022;-80
2024/04/03 02:25:43;;;;;;;1.75;0.82;;;;;;;28.73;35.57;97753.81;7392887;19;20544;-79
2024/04/03 02:28:09;;;;;;;1.23;0.35;;;;;;;28.92;35.70;97747.44;7392087;19;20022;-80
2024/04/03 02:30:35;;;;;;;1.85;0.20;;;;;;;29.14;35.59;97756.94;7392245;19;20025;-80
2024/04/03 02:33:03;;;;;;;0.30;0.20;;;;;;;28.71;35.36;97750.84;7389617;19;20018;-79
2024/04/03 02:35:29;;;;;;;1.60;0.50;;;;;;;28.70;35.97;97738.66;7391854;19;20017;-79
2024/04/03 02:37:55;;;;;;;6.93;0.50;;;;;;;28.83;35.34;97745.63;7394153;19;20622;-79
2024/04/03 02:40:21;;;;;;;1.75;0.22;;;;;;;28.77;35.73;97739.66;7389060;19;20570;-80
2024/04/03 02:42:47;;;;;;;0.60;0.30;;;;;;;28.81;35.73;97736.94;7390759;19;20438;-79
2024/04/03 02:45:13;;;;;;;1.58;0.22;;;;;;;28.99;35.89;97735.56;7393002;19;20029;-79
2024/04/03 02:47:39;;;;;;;3.03;0.35;;;;;;;28.92;35.83;97733.09;7393938;19;20022;-79
2024/04/03 02:50:06;;;;;;;1.10;0.82;;;;;;;28.51;36.34;97728.53;7393427;19;20022;-79
2024/04/03 02:52:32;;;;;;;0.57;0.15;;;;;;;28.84;36.24;97727.06;7389687;19;20352;-80
2024/04/03 02:55:00;;;;;;;0.77;0.40;;;;;;;28.93;35.79;97726.00;7390111;19;20018;-79
2024/04/03 02:57:26;;;;;;;0.73;0.40;;;;;;;29.08;35.95;97733.78;7390686;19;20041;-79
2024/04/03 02:59:52;;;;;;;0.95;0.35;;;;;;;29.11;35.78;97718.09;7392998;19;20026;-79
2024/04/03 03:02:18;;;;;;;1.08;0.20;;;;;;;29.18;36.20;97717.00;7390054;19;20090;-79
2024/04/03 03:04:44;;;;;;;0.82;0.47;;;;;;;30.18;34.69;97719.34;7392495;19;20337;-79
2024/04/03 03:07:10;;;;;;;4.03;0.43;;;;;;;29.55;35.45;97725.63;7388229;19;20017;-79
2024/04/03 03:09:37;;;;;;;0.55;0.20;;;;;;;28.66;36.51;97715.56;7394056;19;20406;-79
2024/04/03 03:12:03;;;;;;;0.82;0.43;;;;;;;28.19;36.97;97718.56;7394219;19;20018;-80
2024/04/03 03:14:30;;;;;;;0.75;0.68;;;;;;;28.08;37.61;97710.91;7390880;19;20113;-79
2024/04/03 03:16:57;;;;;;;0.30;0.30;;;;;;;28.34;37.32;97717.03;7390483;19;20115;-79
2024/04/03 03:19:26;;;;;;;1.27;0.25;;;;;;;28.61;37.00;97707.47;7389991;19;20024;-79
2024/04/03 03:21:52;;;;;;;0.85;0.60;;;;;;;28.63;37.15;97711.13;7388147;19;20117;-80
2024/04/03 03:24:20;;;;;;;0.88;0.10;;;;;;;28.63;36.93;97704.69;7392263;19;20018;-79
2024/04/03 03:26:46;;;;;;;0.38;0.30;;;;;;;28.43;37.37;97699.56;7391501;19;20078;-79
2024/04/03 03:29:12;;;;;;;0.20;0.20;;;;;;;28.02;37.97;97693.50;7390942;19;20011;-79
2024/04/03 03:31:38;;;;;;;1.85;0.22;;;;;;;28.19;38.11;97698.53;7388677;19;20010;-79
2024/04/03 03:34:04;;;;;;;2.17;0.40;;;;;;;28.12;37.97;97688.19;7390212;19;20019;-79
2024/04/03 03:36:31;;;;;;;0.20;0.20;;;;;;;28.92;36.98;97690.84;7391371;19;20646;-79
2024/04/03 03:38:57;;;;;;;2.65;0.28;;;;;;;29.70;36.14;97684.59;7391875;19;20491;-79
2024/04/03 03:41:23;;;;;;;0.32;0.25;;;;;;;30.37;34.92;97673.38;7390724;19;20087;-79
2024/04/03 03:43:49;;;;;;;0.22;0.10;;;;;;;29.17;36.65;97686.88;7389846;19;20014;-79
2024/04/03 03:46:16;;;;;;;0.93;0.93;;;;;;;28.81;37.34;97688.22;7391304;19;20041;-79
2024/04/03 03:54:11;;;;;;;0.20;0.20;;;;;;;29.60;35.97;97680.59;7388834;19;20049;-79
2024/04/03 03:56:37;;;;;;;0.17;0.17;;;;;;;29.50;36.03;97677.38;7392369;19;20487;-79
2024/04/03 03:59:03;;;;;;;0.35;0.10;;;;;;;30.05;35.47;97669.38;7389936;19;20026;-79
2024/04/03 04:01:29;;;;;;;0.20;0.15;;;;;;;33.70;31.59;97660.38;7390699;19;20028;-79
2024/04/03 04:03:56;;;;;;;0.52;0.10;;;;;;;34.19;30.75;97657.06;7387559;19;20018;-79
2024/04/03 04:06:22;;;;;;;0.40;0.40;;;;;;;33.72;31.66;97654.66;7389525;19;20093;-80
2024/04/03 04:08:48;;;;;;;0.30;0.30;;;;;;;32.49;32.67;97660.41;7390138;19;20408;-80
2024/04/03 04:11:14;;;;;;;0.22;0.22;;;;;;;32.45;32.56;97654.53;7389393;19;20019;-80
2024/04/03 04:13:40;;;;;;;0.10;0.10;;;;;;;32.79;32.31;97652.50;7388603;19;20338;-80
2024/04/03 04:16:06;;;;;;;0.50;0.50;;;;;;;32.59;32.12;97654.91;7388154;19;20093;-80
2024/04/03 04:18:33;;;;;;;0.32;0.10;;;;;;;31.85;32.98;97659.38;7388511;19;20424;-80
2024/04/03 04:21:00;;;;;;;0.10;0.10;;;;;;;32.43;32.83;97654.47;7393223;19;20017;-80
2024/04/03 04:23:27;;;;;;;0.20;0.20;;;;;;;32.65;32.27;97642.78;7388381;19;20078;-80
2024/04/03 04:26:02;;;;;;;0.30;0.30;;;;;;;30.92;34.13;97655.84;7388358;19;20014;-80
2024/04/03 04:28:29;;;;;;;0.10;0.10;;;;;;;30.77;34.40;97650.28;7391388;19;20024;-80
2024/04/03 04:31:05;;;;;;;0.57;0.40;;;;;;;30.99;33.96;97643.09;7390753;19;20345;-79
2024/04/03 04:33:33;;;;;;;3.33;0.50;;;;;;;30.84;34.34;97640.44;7387584;19;20567;-79
2024/04/03 04:36:00;;;;;;;0.45;0.17;;;;;;;30.81;34.04;97639.66;7388811;19;20466;-80
2024/04/03 04:38:27;;;;;;;5.80;0.40;;;;;;;30.43;34.86;97644.16;7390437;19;20365;-80
2024/04/03 04:41:00;;;;;;;0.30;0.25;;;;;;;30.10;35.19;97632.91;7388575;19;20023;-80
2024/04/03 04:43:28;;;;;;;0.55;0.20;;;;;;;30.55;34.38;97636.66;7390764;19;20023;-80
2024/04/03 04:45:57;;;;;;;1.48;1.05;;;;;;;30.16;34.74;97630.25;7388065;19;20023;-80
2024/04/03 04:48:28;;;;;;;0.85;0.30;;;;;;;30.05;34.89;97626.31;7389755;19;20015;-80
2024/04/03 04:50:59;;;;;;;0.63;0.43;;;;;;;30.19;34.80;97634.69;7387667;19;20031;-80
2024/04/03 04:53:26;;;;;;;0.40;0.22;;;;;;;30.48;34.51;97628.50;7386774;19;20030;-80
2024/04/03 04:55:56;;;;;;;0.10;0.10;;;;;;;30.57;34.43;97633.84;7393296;19;20371;-79
2024/04/03 04:58:23;;;;;;;1.83;0.40;;;;;;;30.23;35.12;97620.44;7387373;19;20600;-80
2024/04/03 05:00:59;;;;;;;0.40;0.40;;;;;;;29.22;35.66;97616.78;7389491;19;20033;-80
2024/04/03 05:03:25;;;;;;;9.13;0.90;;;;;;;30.46;34.62;97617.69;7385200;19;20021;-80
2024/04/03 05:05:52;;;;;;;0.20;0.10;;;;;;;29.99;34.67;97615.31;7387227;19;20016;-80
2024/04/03 05:08:20;;;;;;;0.40;0.40;;;;;;;29.79;34.96;97611.78;7388461;19;20027;-80
2024/04/03 05:10:59;;;;;;;1.95;0.65;;;;;;;30.08;34.97;97619.25;7387781;19;20015;-80
2024/04/03 05:13:32;;;;;;;0.57;0.45;;;;;;;30.19;34.93;97620.31;7386379;19;20026;-80
2024/04/03 05:16:09;;;;;;;0.25;0.15;;;;;;;29.40;35.40;97614.63;7387130;19;20331;-80
2024/04/03 05:18:35;;;;;;;0.52;0.32;;;;;;;28.98;36.52;97604.38;7388387;19;20027;-80
2024/04/03 05:21:02;;;;;;;2.40;1.02;;;;;;;31.97;33.04;97607.88;7392996;19;20018;-80
2024/04/03 05:23:29;;;;;;;1.85;0.40;;;;;;;32.28;32.79;97609.41;7387995;19;20029;-80
2024/04/03 05:26:00;;;;;;;0.32;0.32;;;;;;;29.84;35.47;97601.88;7388824;19;20023;-80
2024/04/03 05:28:26;;;;;;;1.15;0.85;;;;;;;28.64;36.78;97606.63;7387830;19;20007;-80
2024/04/03 05:30:53;;;;;;;0.40;0.30;;;;;;;29.99;35.27;97600.97;7391896;19;20014;-79
2024/04/03 05:33:20;;;;;;;0.90;0.65;;;;;;;29.20;36.11;97599.50;7393524;19;20023;-80
2024/04/03 05:35:56;;;;;;;0.30;0.30;;;;;;;29.54;35.79;97597.91;7396296;19;20018;-80
2024/04/03 05:38:23;;;;;;;0.30;0.10;;;;;;;29.80;35.21;97601.75;7396044;19;20377;-80
2024/04/03 05:40:50;;;;;;;0.55;0.20;;;;;;;31.28;33.90;97602.31;7395564;19;20476;-80
2024/04/03 05:43:16;;;;;;;0.52;0.47;;;;;;;31.06;34.24;97590.13;7393952;19;20477;-79
2024/04/03 05:45:42;;;;;;;0.95;0.50;;;;;;;31.39;33.65;97597.56;7395815;19;20010;-79
2024/04/03 05:48:09;;;;;;;0.38;0.20;;;;;;;30.89;33.99;97593.94;7395555;19;20091;-79
2024/04/03 05:50:35;;;;;;;0.30;0.30;;;;;;;30.89;34.46;97591.03;7394239;19;20496;-79
2024/04/03 05:53:02;;;;;;;4.13;0.50;;;;;;;30.95;33.92;97594.09;7395010;19;20030;-79
2024/04/03 05:55:29;;;;;;;0.20;0.20;;;;;;;30.59;34.68;97601.56;7393518;19;20021;-79
2024/04/03 05:57:56;;;;;;;0.90;0.30;;;;;;;30.70;34.45;97597.63;7391469;19;20019;-79
2024/04/03 06:00:22;;;;;;;0.75;0.25;;;;;;;30.84;34.26;97598.03;7390457;19;20078;-80
2024/04/03 06:02:49;;;;;;;0.57;0.35;;;;;;;30.97;34.10;97596.31;7391776;19;20010;-79
2024/04/03 06:05:16;;;;;;;4.03;0.80;;;;;;;31.19;33.74;97591.97;7394023;19;20510;-80
2024/04/03 06:07:44;;;;;;;0.38;0.35;;;;;;;31.07;33.66;97597.38;7394196;19;20037;-80
2024/04/03 06:10:12;;;;;;;0.30;0.30;;;;;;;30.67;34.08;97601.81;7393689;19;20010;-80
2024/04/03 06:12:42;;;;;;;3.40;0.63;;;;;;;31.47;33.43;97603.59;7394319;19;20029;-80
2024/04/03 06:15:09;;;;;;;0.63;0.52;;;;;;;31.77;33.26;97600.84;7392339;19;20015;-80
2024/04/03 06:17:35;;;;;;;3.90;0.63;;;;;;;31.76;33.19;97599.34;7392827;19;20022;-80
2024/04/03 06:20:03;;;;;;;0.10;0.10;;;;;;;32.06;33.22;97598.06;7392332;19;20018;-79
2024/04/03 06:22:29;;;;;;;0.80;0.55;;;;;;;31.66;33.11;97599.09;7389309;19;20014;-80
2024/04/03 06:24:55;;;;;;;0.50;0.50;;;;;;;31.93;32.71;97583.97;7393176;19;20050;-80
2024/04/03 06:27:22;;;;;;;4.05;0.52;;;;;;;31.61;32.95;97597.50;7394544;19;20030;-80
2024/04/03 06:29:48;;;;;;;0.68;0.52;;;;;;;31.70;32.84;97585.53;7393871;19;20010;-80
2024/04/03 06:32:14;;;;;;;1.00;0.63;;;;;;;31.75;33.21;97592.16;7392328;19;20484;-80
2024/04/03 06:34:40;;;;;;;1.30;0.82;;;;;;;31.60;33.14;97596.03;7391620;19;20022;-81
2024/04/03 06:37:06;;;;;;;0.40;0.40;;;;;;;31.91;32.91;97592.56;7390447;19;20531;-80
2024/04/03 06:39:32;;;;;;;0.43;0.43;;;;;;;32.57;32.37;97591.44;7391354;19;20346;-80
2024/04/03 06:41:58;;;;;;;0.52;0.17;;;;;;;32.73;32.03;97591.09;7387353;19;20018;-80
2024/04/03 06:44:24;;;;;;;0.40;0.40;;;;;;;32.95;31.87;97588.72;7390813;19;20345;-79
2024/04/03 06:46:51;;;;;;;1.48;0.40;;;;;;;33.09;31.45;97585.44;7391273;19;20027;-80
2024/04/03 06:49:17;;;;;;;0.82;0.40;;;;;;;32.70;31.64;97581.66;7391648;19;20019;-80
2024/04/03 06:51:43;;;;;;;1.23;0.40;;;;;;;32.61;32.19;97576.41;7392494;19;20011;-80
2024/04/03 06:54:09;;;;;;;0.50;0.50;;;;;;;32.87;31.79;97583.50;7389369;19;20373;-80
2024/04/03 06:56:35;;;;;;;0.28;0.20;;;;;;;34.09;30.63;97586.78;7392558;19;20035;-80
2024/04/03 06:59:02;;;;;;;14.73;0.95;;;;;;;35.00;29.99;97586.84;7389985;19;20030;-80
2024/04/03 07:01:28;;;;;;;7.68;0.90;;;;;;;35.43;29.76;97582.34;7391214;19;20078;-79
2024/04/03 07:03:56;;;;;;;3.92;0.50;;;;;;;35.69;29.02;97588.47;7388482;19;20018;-79
2024/04/03 07:06:22;;;;;;;2.90;0.40;;;;;;;35.77;29.32;97579.91;7390266;19;20015;-79
2024/04/03 07:08:49;;;;;;;0.75;0.55;;;;;;;35.75;29.21;97584.94;7392788;19;20121;-79
2024/04/03 07:11:15;;;;;;;0.30;0.30;;;;;;;35.82;28.88;97582.84;7390757;19;20012;-80
2024/04/03 07:13:41;;;;;;;4.90;0.98;;;;;;;36.16;29.07;97580.31;7389706;19;20014;-79
2024/04/03 07:16:07;;;;;;;0.68;0.43;;;;;;;36.35;28.65;97579.75;7391640;19;20022;-79
2024/04/03 07:18:37;;;;;;;2.08;0.90;;;;;;;35.66;29.29;97587.03;7392928;19;20061;-80
2024/04/03 07:21:04;;;;;;;6.15;0.52;;;;;;;35.39;29.19;97585.19;7394768;19;20032;-79
2024/04/03 07:23:31;;;;;;;4.95;0.63;;;;;;;35.17;29.18;97584.94;7387853;19;20021;-80
2024/04/03 07:25:58;;;;;;;6.72;0.80;;;;;;;34.64;29.80;97579.75;7391485;19;20018;-79
2024/04/03 07:28:26;;;;;;;1.25;0.65;;;;;;;34.52;29.78;97573.81;7391356;19;20026;-79
2024/04/03 07:30:53;;;;;;;0.30;0.20;;;;;;;34.21;30.17;97570.38;7391126;19;20014;-79
2024/04/03 07:33:21;;;;;;;0.13;0.10;;;;;;;35.08;29.53;97580.47;7388881;19;20014;-79
2024/04/03 07:35:49;;;;;;;2.28;0.47;;;;;;;35.43;28.73;97570.78;7389266;19;20016;-80
2024/04/03 07:38:15;;;;;;;0.20;0.20;;;;;;;35.93;29.03;97576.44;7390202;19;20014;-80
2024/04/03 07:40:47;;;;;;;0.38;0.38;;;;;;;36.39;28.39;97573.25;7387907;19;20038;-80
2024/04/03 07:43:13;;;;;;;0.95;0.40;;;;;;;36.45;28.55;97570.47;7389551;19;20018;-80
2024/04/03 07:45:40;;;;;;;0.15;0.13;;;;;;;36.28;28.35;97574.63;7389193;19;20023;-80
2024/04/03 07:48:07;;;;;;;0.30;0.20;;;;;;;35.78;29.07;97574.81;7390285;19;20489;-80
2024/04/03 07:50:33;;;;;;;0.70;0.60;;;;;;;36.80;28.03;97580.84;7388374;19;20011;-79
2024/04/03 07:52:59;;;;;;;0.22;0.22;;;;;;;36.17;28.75;97570.19;7385194;19;20018;-79
2024/04/03 07:55:26;;;;;;;3.20;0.60;;;;;;;36.08;28.80;97568.66;7384950;19;20078;-80
2024/04/03 07:57:52;;;;;;;1.60;0.60;;;;;;;36.25;28.65;97576.78;7383395;19;20015;-79
2024/04/03 08:00:18;;;;;;;0.57;0.57;;;;;;;36.35;28.71;97573.22;7383014;19;20010;-79
2024/04/03 08:02:44;;;;;;;1.80;0.57;;;;;;;36.46;28.31;97566.09;7385694;19;20606;-79
2024/04/03 08:05:14;;;;;;;1.98;0.55;;;;;;;36.46;28.49;97577.72;7389599;19;20114;-80
2024/04/03 08:07:43;;;;;;;5.95;0.40;;;;;;;36.48;28.38;97563.22;7387575;19;20083;-79
2024/04/03 08:10:11;;;;;;;0.38;0.20;;;;;;;36.41;28.24;97567.47;7389637;19;20102;-79
2024/04/03 08:12:39;;;;;;;0.45;0.45;;;;;;;36.39;28.52;97568.19;7382015;19;20787;-80
2024/04/03 08:15:13;;;;;;;0.35;0.35;;;;;;;36.46;28.24;97574.81;7381918;19;20540;-80
2024/04/03 08:17:39;;;;;;;2.38;0.60;;;;;;;37.13;28.10;97570.19;7377132;19;20022;-80
2024/04/03 08:20:07;;;;;;;0.88;0.43;;;;;;;37.35;27.78;97567.44;7384265;19;20015;-80
2024/04/03 08:22:33;;;;;;;0.25;0.15;;;;;;;37.42;27.78;97571.09;7383393;19;20014;-80
2024/04/03 08:25:00;;;;;;;0.15;0.15;;;;;;;37.33;28.03;97563.75;7384299;19;20039;-80
2024/04/03 08:27:27;;;;;;;0.20;0.13;;;;;;;37.80;27.64;97569.06;7386250;19;20010;-79
2024/04/03 08:29:57;;;;;;;3.22;0.52;;;;;;;37.86;26.98;97574.91;7387851;19;20029;-79
2024/04/03 08:32:23;;;;;;;5.57;0.40;;;;;;;36.87;27.91;97585.25;7389455;19;20456;-79
2024/04/03 08:34:54;;;;;;;1.02;0.28;;;;;;;36.75;27.95;97582.28;7388538;19;20372;-79
2024/04/03 08:37:20;;;;;;;4.63;0.52;;;;;;;36.85;27.50;97582.34;7390262;19;20018;-79
2024/04/03 08:39:51;;;;;;;4.15;0.85;;;;;;;37.96;26.79;97582.91;7391050;19;20025;-79
2024/04/03 08:42:18;;;;;;;3.00;0.55;;;;;;;37.49;26.96;97578.41;7389510;19;20476;-79
2024/04/03 08:44:44;;;;;;;0.22;0.20;;;;;;;37.62;26.82;97574.78;7391936;19;20019;-79
2024/04/03 08:47:10;;;;;;;2.40;0.20;;;;;;;38.32;26.41;97574.25;7389946;19;20027;-79
2024/04/03 08:49:36;;;;;;;0.30;0.30;;;;;;;38.51;26.25;97572.06;7388654;19;20369;-79
2024/04/03 08:52:04;;;;;;;0.28;0.28;;;;;;;38.43;26.48;97572.81;7388380;19;20473;-79
2024/04/03 08:54:31;;;;;;;3.63;0.40;;;;;;;38.27;26.34;97575.00;7388932;19;20520;-79
2024/04/03 08:57:05;;;;;;;13.25;1.55;;;;;;;38.32;26.42;97576.44;7387753;19;20015;-79
2024/04/03 08:59:33;;;;;;;5.80;0.85;;;;;;;37.65;27.08;97575.53;7388330;19;20015;-79
2024/04/03 09:01:59;;;;;;;0.80;0.30;;;;;;;37.78;26.63;97577.03;7389143;19;20014;-79
2024/04/03 09:04:25;;;;;;;5.20;1.35;;;;;;;37.92;26.49;97580.00;7389414;19;20046;-79
2024/04/03 09:06:51;;;;;;;0.43;0.43;;;;;;;37.05;27.13;97578.88;7396096;19;20039;-79
2024/04/03 09:09:21;;;;;;;0.10;0.10;;;;;;;36.96;27.38;97586.81;7396117;19;20050;-79
2024/04/03 09:11:50;;;;;;;0.60;0.20;;;;;;;37.15;27.26;97579.66;7399217;19;20015;-79
2024/04/03 09:14:24;;;;;;;2.75;0.20;;;;;;;37.11;27.41;97581.81;7392933;19;20015;-79
2024/04/03 09:16:58;;;;;;;0.10;0.10;;;;;;;37.11;27.20;97581.81;7398463;19;20022;-79
2024/04/03 09:19:24;;;;;;;1.55;0.47;;;;;;;37.25;27.17;97587.69;7395643;19;20014;-79
2024/04/03 09:21:50;;;;;;;6.72;0.68;;;;;;;37.18;27.23;97581.13;7390222;19;20018;-79
2024/04/03 09:24:16;;;;;;;0.20;0.20;;;;;;;37.10;26.98;97589.78;7391928;19;21008;-79
2024/04/03 09:26:47;;;;;;;0.45;0.38;;;;;;;37.19;27.12;97582.56;7392786;19;20342;-79
2024/04/03 09:29:15;;;;;;;;;;;;;;;37.52;26.97;97574.03;7395369;19;20523;-79
2024/04/03 09:31:43;;;;;;;1.48;0.45;;;;;;;37.58;27.14;97579.84;7393948;19;19907;-79
2024/04/03 09:34:10;;;;;;;0.10;0.10;;;;;;;38.01;26.78;97575.66;7392035;19;20518;-79
2024/04/03 09:36:37;;;;;;;0.30;0.25;;;;;;;38.26;26.49;97588.06;7389299;19;20082;-79
2024/04/03 09:39:03;;;;;;;2.38;0.65;;;;;;;38.11;26.16;97590.22;7387874;19;20039;-79
2024/04/03 09:41:31;;;;;;;0.10;0.10;;;;;;;38.06;26.25;97582.94;7392397;19;20023;-79
2024/04/03 09:44:03;;;;;;;0.20;0.20;;;;;;;38.13;26.38;97587.31;7386927;19;20082;-79
2024/04/03 09:46:46;;;;;;;3.45;0.22;;;;;;;38.20;26.43;97582.97;7388643;19;20595;-79
2024/04/03 09:49:16;;;;;;;0.10;0.10;;;;;;;38.44;26.47;97588.09;7389191;19;20026;-79
2024/04/03 09:51:42;;;;;;;0.10;0.10;;;;;;;38.70;26.69;97593.22;7392526;19;20029;-79
2024/04/03 09:54:10;;;;;;;0.20;0.10;;;;;;;38.23;26.70;97595.31;7390318;19;20488;-79
2024/04/03 09:56:40;;;;;;;2.80;0.20;;;;;;;38.58;26.33;97588.81;7394755;19;20006;-79
2024/04/03 09:59:07;;;;;;;3.97;0.35;;;;;;;38.16;26.73;97591.69;7394510;19;20019;-79
2024/04/03 10:01:35;;;;;;;0.40;0.10;;;;;;;37.86;26.71;97582.88;7393186;19;20042;-79
2024/04/03 10:04:05;;;;;;;4.78;0.38;;;;;;;37.83;26.82;97584.34;7392002;19;20026;-80
2024/04/03 10:06:41;;;;;;;0.10;0.10;;;;;;;37.99;26.70;97589.47;7392075;19;20015;-79
2024/04/03 10:09:23;;;;;;;0.30;0.08;;;;;;;37.80;26.90;97585.78;7397037;19;20034;-80
2024/04/03 10:12:00;;;;;;;2.50;0.38;;;;;;;38.12;26.67;97582.94;7395894;19;20053;-79
2024/04/03 10:14:30;;;;;;;0.10;0.10;;;;;;;37.79;26.46;97585.00;7394649;19;20475;-79
2024/04/03 10:16:57;;;;;;;2.40;0.30;;;;;;;37.52;26.58;97585.66;7397632;19;20011;-80
2024/04/03 10:19:29;;;;;;;0.20;0.20;;;;;;;37.84;26.35;97594.50;7398103;19;20019;-81
2024/04/03 10:21:56;;;;;;;0.20;0.20;;;;;;;38.01;26.31;97593.09;7397657;19;20478;-79
2024/04/03 10:24:22;;;;;;;0.68;0.68;;;;;;;37.23;26.59;97593.50;7394869;19;20042;-79
2024/04/03 10:26:49;;;;;;;1.05;0.30;;;;;;;37.23;26.86;97588.41;7396397;19;20361;-80
2024/04/03 10:29:15;;;;;;;0.10;0.10;;;;;;;37.41;26.83;97589.97;7396391;19;20018;-80
2024/04/03 10:31:46;;;;;;;2.05;0.30;;;;;;;37.31;26.67;97584.09;7393571;19;20019;-81
2024/04/03 10:34:20;;;;;;;0.40;0.10;;;;;;;36.67;27.06;97590.91;7393514;19;20368;-82
2024/04/03 10:36:47;;;;;;;0.30;0.08;;;;;;;36.56;27.54;97598.06;7396213;19;20097;-80
2024/04/03 10:39:13;;;;;;;1.35;0.85;;;;;;;36.36;27.43;97592.81;7394828;19;20017;-79
2024/04/03 10:41:40;;;;;;;1.33;0.20;;;;;;;35.83;28.07;97595.88;7396334;19;20034;-79
2024/04/03 10:44:06;;;;;;;2.72;0.38;;;;;;;35.78;27.96;97592.94;7391571;19;20011;-79
2024/04/03 10:46:32;;;;;;;4.30;0.45;;;;;;;36.86;27.44;97592.50;7395335;19;20082;-80
2024/04/03 10:48:59;;;;;;;1.05;0.20;;;;;;;36.82;27.38;97595.38;7395988;19;20039;-79
2024/04/03 10:51:26;;;;;;;0.32;0.32;;;;;;;36.44;27.72;97598.00;7394645;19;20022;-80
2024/04/03 10:53:55;;;;;;;6.60;1.35;;;;;;;36.49;28.09;97600.19;7392986;19;20406;-80
2024/04/03 10:56:24;;;;;;;5.40;1.13;;;;;;;36.63;27.55;97596.69;7393294;19;20010;-79
2024/04/03 10:58:51;;;;;;;10.60;1.55;;;;;;;36.68;27.76;97604.00;7396096;19;20016;-80
2024/04/03 11:01:17;;;;;;;0.70;0.40;;;;;;;37.41;27.48;97598.69;7394451;19;20031;-80
2024/04/03 11:03:43;;;;;;;1.45;0.63;;;;;;;37.27;27.09;97601.50;7394627;19;20007;-80
2024/04/03 11:06:09;;;;;;;2.78;0.73;;;;;;;37.65;27.29;97604.59;7393654;19;20010;-79
2024/04/03 11:08:36;;;;;;;5.65;0.90;;;;;;;37.45;27.01;97598.72;7396742;19;20045;-79
2024/04/03 11:11:08;;;;;;;1.65;1.00;;;;;;;37.60;27.49;97609.66;7395543;19;20014;-80
2024/04/03 11:13:35;;;;;;;4.75;0.85;;;;;;;37.76;27.57;97603.91;7394566;19;20022;-80
2024/04/03 11:16:06;;;;;;;3.65;0.90;;;;;;;37.92;26.91;97612.00;7394060;19;20420;-80
2024/04/03 11:18:32;;;;;;;6.38;1.23;;;;;;;38.00;27.26;97612.00;7393946;19;20014;-80
2024/04/03 11:21:04;;;;;;;0.98;0.50;;;;;;;38.05;26.82;97606.91;7393141;19;20022;-79
2024/04/03 11:23:30;;;;;;;1.33;1.23;;;;;;;38.00;27.11;97605.44;7394963;19;20019;-80
2024/04/03 11:25:56;;;;;;;4.63;0.98;;;;;;;37.91;27.50;97604.69;7395867;19;20019;-81
2024/04/03 11:28:22;;;;;;;1.10;0.88;;;;;;;37.78;27.56;97611.91;7392255;19;20019;-79
2024/04/03 11:30:48;;;;;;;2.22;0.35;;;;;;;37.93;27.34;97610.53;7392834;19;20007;-80
2024/04/03 11:33:15;;;;;;;1.60;0.50;;;;;;;37.83;27.67;97610.50;7391532;19;20014;-80
2024/04/03 11:35:41;;;;;;;3.83;0.93;;;;;;;38.33;27.64;97609.91;7391874;19;20019;-80
2024/04/03 11:38:07;;;;;;;0.30;0.20;;;;;;;38.43;27.49;97601.91;7390428;19;20413;-79
2024/04/03 11:40:33;;;;;;;1.00;0.28;;;;;;;38.68;27.45;97605.56;7390340;19;20037;-79